Time;durP1;ratioP1;P1;durP2;ratioP2;P2;SDS_P1;SDS_P2;PMS_P1;PMS_P2;Temp;Humidity;BMP_temperature;BMP_pressure;BME280_temperature;BME280_humidity;BME280_pressure;Samples;Min_cycle;Max_cycle;Signal;HPM_P1;HPM_P2
2023/04/27 00:00:02;;;;;;;6.03;3.33;;;2.10;99.90;;;;;;5073940;28;20084;-80
2023/04/27 00:02:28;;;;;;;8.60;3.88;;;2.10;99.90;;;;;;5073967;28;20041;-80
2023/04/27 00:04:53;;;;;;;8.40;4.05;;;2.00;99.90;;;;;;5073938;28;20131;-80
2023/04/27 00:07:19;;;;;;;5.55;3.45;;;2.00;99.90;;;;;;5056569;28;20044;-80
2023/04/27 00:09:45;;;;;;;7.07;3.70;;;2.00;99.90;;;;;;5073865;28;20488;-80
2023/04/27 00:12:10;;;;;;;7.22;3.53;;;2.00;99.90;;;;;;5073775;28;20136;-80
2023/04/27 00:14:36;;;;;;;7.60;3.88;;;2.00;99.90;;;;;;5073711;28;20044;-80
2023/04/27 00:17:01;;;;;;;6.93;3.85;;;1.90;99.90;;;;;;5074241;28;20044;-80
2023/04/27 00:19:29;;;;;;;6.63;3.90;;;1.90;99.90;;;;;;5073604;28;20040;-80
2023/04/27 00:21:56;;;;;;;5.72;3.50;;;1.90;99.90;;;;;;5073944;28;20405;-80
2023/04/27 00:24:22;;;;;;;6.35;3.63;;;1.70;99.90;;;;;;5072543;28;20055;-80
2023/04/27 00:26:47;;;;;;;6.60;3.45;;;1.80;99.90;;;;;;5073753;28;20040;-80
2023/04/27 00:29:13;;;;;;;7.82;3.35;;;1.90;99.90;;;;;;5073582;28;20093;-80
2023/04/27 00:31:39;;;;;;;7.13;3.60;;;1.80;99.90;;;;;;5073411;28;20036;-81
2023/04/27 00:34:04;;;;;;;5.85;3.33;;;1.60;99.90;;;;;;5073923;28;20142;-80
2023/04/27 00:36:33;;;;;;;9.43;4.13;;;1.60;99.90;;;;;;5073714;28;20048;-81
2023/04/27 00:38:59;;;;;;;7.68;3.88;;;1.60;99.90;;;;;;5072240;28;20116;-81
2023/04/27 00:41:24;;;;;;;7.45;4.10;;;1.50;99.90;;;;;;5072476;28;20079;-80
2023/04/27 00:43:50;;;;;;;6.15;3.75;;;1.50;99.90;;;;;;5073457;28;20121;-80
2023/04/27 00:46:18;;;;;;;6.03;3.85;;;1.50;99.90;;;;;;5072283;28;20044;-81
2023/04/27 00:48:44;;;;;;;9.25;3.90;;;1.40;99.90;;;;;;5073133;28;20484;-81
2023/04/27 00:51:10;;;;;;;5.30;3.42;;;1.40;99.90;;;;;;5073469;28;20056;-80
2023/04/27 00:53:36;;;;;;;8.15;4.18;;;1.40;99.90;;;;;;5072074;28;20045;-81
2023/04/27 00:56:06;;;;;;;7.95;4.30;;;1.30;99.90;;;;;;5072246;28;20049;-80
2023/04/27 00:58:32;;;;;;;7.20;4.18;;;1.30;99.90;;;;;;5072001;28;20040;-80
2023/04/27 01:00:59;;;;;;;6.15;3.95;;;2.40;99.90;;;;;;5073292;28;20049;-80
2023/04/27 01:03:25;;;;;;;8.25;4.18;;;1.20;99.90;;;;;;5072096;28;20052;-80
2023/04/27 01:05:51;;;;;;;9.75;4.18;;;1.20;99.90;;;;;;5075675;28;20044;-80
2023/04/27 01:08:16;;;;;;;8.52;4.18;;;1.20;99.90;;;;;;5076894;28;20101;-80
2023/04/27 01:10:42;;;;;;;6.72;3.75;;;1.20;99.90;;;;;;5077260;28;20044;-80
2023/04/27 01:13:09;;;;;;;5.32;3.70;;;1.10;99.90;;;;;;5077236;28;20041;-80
2023/04/27 01:15:34;;;;;;;6.35;4.00;;;1.10;99.90;;;;;;5075890;28;20040;-80
2023/04/27 01:18:01;;;;;;;6.70;3.78;;;1.10;99.90;;;;;;5077022;28;20045;-80
2023/04/27 01:20:31;;;;;;;7.05;4.65;;;1.10;99.90;;;;;;5076923;28;20050;-80
2023/04/27 01:22:57;;;;;;;8.05;4.60;;;1.10;99.90;;;;;;5077149;28;20394;-80
2023/04/27 01:25:23;;;;;;;6.80;3.83;;;1.10;99.90;;;;;;5075727;28;20051;-80
2023/04/27 01:27:49;;;;;;;4.83;3.70;;;1.10;99.90;;;;;;5076507;28;20465;-80
2023/04/27 01:30:15;;;;;;;4.88;3.47;;;1.00;99.90;;;;;;5076817;28;20120;-80
2023/04/27 01:32:40;;;;;;;4.60;3.70;;;0.90;99.90;;;;;;5075454;28;20052;-80
2023/04/27 01:35:07;;;;;;;6.80;3.83;;;0.90;99.90;;;;;;5075774;28;20127;-80
2023/04/27 01:37:32;;;;;;;9.80;4.00;;;0.80;99.90;;;;;;5076430;28;20507;-80
2023/04/27 01:39:58;;;;;;;8.32;3.90;;;0.80;99.90;;;;;;5075762;28;20084;-80
2023/04/27 01:42:24;;;;;;;7.03;4.03;;;0.70;99.90;;;;;;5076473;28;20063;-80
2023/04/27 01:44:49;;;;;;;8.45;3.75;;;1.40;99.90;;;;;;5076485;28;20391;-80
2023/04/27 01:47:16;;;;;;;8.32;4.10;;;0.70;99.90;;;;;;5076412;28;20045;-80
2023/04/27 01:49:44;;;;;;;8.63;3.75;;;0.70;99.90;;;;;;5075929;28;20071;-80
2023/04/27 01:52:10;;;;;;;8.65;4.22;;;1.10;99.90;;;;;;5076316;28;20041;-80
2023/04/27 01:54:35;;;;;;;6.60;4.15;;;0.80;99.90;;;;;;5076149;28;20120;-80
2023/04/27 01:57:01;;;;;;;4.65;3.35;;;0.90;99.90;;;;;;5076298;28;20043;-80
2023/04/27 01:59:27;;;;;;;6.47;3.95;;;0.90;99.90;;;;;;5076189;28;20147;-80
2023/04/27 02:01:53;;;;;;;9.82;4.20;;;0.90;99.90;;;;;;5076353;28;20129;-80
2023/04/27 02:04:19;;;;;;;9.57;4.43;;;0.80;99.90;;;;;;5076625;28;20125;-81
2023/04/27 02:06:45;;;;;;;5.65;3.70;;;0.80;99.90;;;;;;5076181;28;20437;-80
2023/04/27 02:09:11;;;;;;;6.43;4.13;;;0.80;99.90;;;;;;5076155;28;20053;-81
2023/04/27 02:11:36;;;;;;;5.40;3.88;;;0.80;99.90;;;;;;5076089;28;20385;-80
2023/04/27 02:14:02;;;;;;;7.55;3.97;;;0.80;99.90;;;;;;5076188;28;20065;-80
2023/04/27 02:16:28;;;;;;;6.30;4.03;;;0.80;99.90;;;;;;5074485;28;20041;-80
2023/04/27 02:18:53;;;;;;;9.75;4.35;;;0.80;99.90;;;;;;5057984;28;20358;-80
2023/04/27 02:21:19;;;;;;;7.28;4.20;;;0.80;99.90;;;;;;5074857;28;20060;-80
2023/04/27 02:23:45;;;;;;;6.93;4.13;;;0.80;99.90;;;;;;5075694;28;20052;-80
2023/04/27 02:26:19;;;;;;;7.00;3.88;;;0.80;99.90;;;;;;5075996;28;20503;-80
2023/04/27 02:28:46;;;;;;;5.45;4.10;;;0.80;99.90;;;;;;5075687;28;20044;-80
2023/04/27 02:31:13;;;;;;;6.78;3.95;;;0.70;99.90;;;;;;5076181;28;20044;-80
2023/04/27 02:33:40;;;;;;;5.68;3.80;;;0.40;99.90;;;;;;5075592;28;20087;-80
2023/04/27 02:36:06;;;;;;;9.20;4.10;;;0.70;99.90;;;;;;5075386;28;20118;-80
2023/04/27 02:38:32;;;;;;;6.95;3.80;;;0.70;99.90;;;;;;5075503;28;20449;-80
2023/04/27 02:40:57;;;;;;;6.57;3.83;;;0.70;99.90;;;;;;5075412;28;20080;-80
2023/04/27 02:43:23;;;;;;;6.88;4.07;;;0.60;99.90;;;;;;5075428;28;20451;-80
2023/04/27 02:45:49;;;;;;;6.60;3.58;;;0.50;99.90;;;;;;5075923;28;20052;-80
2023/04/27 02:48:15;;;;;;;8.63;3.90;;;0.40;99.90;;;;;;5075332;28;20453;-79
2023/04/27 02:50:41;;;;;;;10.93;4.88;;;0.40;99.90;;;;;;5074988;28;20147;-80
2023/04/27 02:53:07;;;;;;;5.63;3.85;;;0.40;99.90;;;;;;5075219;28;20041;-80
2023/04/27 02:55:33;;;;;;;7.15;3.70;;;0.40;99.90;;;;;;5075098;28;20374;-80
2023/04/27 02:57:58;;;;;;;7.93;3.95;;;0.40;99.90;;;;;;5075039;28;20044;-80
2023/04/27 03:00:24;;;;;;;6.10;4.13;;;0.40;99.90;;;;;;5075447;28;20404;-80
2023/04/27 03:02:50;;;;;;;8.70;4.32;;;0.40;99.90;;;;;;5057277;28;20048;-80
2023/04/27 03:05:16;;;;;;;7.78;5.13;;;0.40;99.90;;;;;;5074614;28;20055;-80
2023/04/27 03:07:42;;;;;;;7.88;4.35;;;0.40;99.90;;;;;;5074981;28;20041;-80
2023/04/27 03:10:08;;;;;;;8.27;4.45;;;0.40;99.90;;;;;;5074876;28;20533;-80
2023/04/27 03:12:33;;;;;;;8.40;4.70;;;0.40;99.90;;;;;;5074865;28;20102;-80
2023/04/27 03:14:59;;;;;;;5.47;4.00;;;0.40;99.90;;;;;;5073575;28;20044;-80
2023/04/27 03:17:25;;;;;;;5.60;3.83;;;0.40;99.90;;;;;;5074761;28;20044;-80
2023/04/27 03:19:51;;;;;;;7.45;3.55;;;0.40;99.90;;;;;;5074693;28;20049;-80
2023/04/27 03:22:17;;;;;;;6.68;3.85;;;0.30;99.90;;;;;;5074605;28;20041;-80
2023/04/27 03:24:42;;;;;;;6.43;3.72;;;0.30;99.90;;;;;;5074618;28;20110;-80
2023/04/27 03:27:08;;;;;;;7.25;4.00;;;0.30;99.90;;;;;;5074411;28;20037;-79
2023/04/27 03:29:34;;;;;;;6.50;3.88;;;0.30;99.90;;;;;;5074260;28;20055;-80
2023/04/27 03:31:59;;;;;;;13.80;4.38;;;0.00;99.90;;;;;;5074180;28;20552;-79
2023/04/27 03:34:25;;;;;;;8.57;4.20;;;0.10;99.90;;;;;;5074650;28;20065;-81
2023/04/27 03:36:51;;;;;;;9.02;4.38;;;0.10;99.90;;;;;;5073186;28;20044;-83
2023/04/27 03:39:16;;;;;;;10.25;4.18;;;0.10;99.90;;;;;;5073097;28;20403;-80
2023/04/27 03:41:42;;;;;;;6.20;3.97;;;0.00;99.90;;;;;;5072757;28;20051;-82
2023/04/27 03:44:07;;;;;;;6.65;4.38;;;2.50;99.90;;;;;;5072810;28;20119;-81
2023/04/27 03:46:33;;;;;;;7.15;4.15;;;0.00;99.90;;;;;;5056789;28;20048;-82
2023/04/27 03:48:59;;;;;;;6.03;4.15;;;0.00;99.90;;;;;;5057126;28;20044;-81
2023/04/27 03:51:25;;;;;;;10.52;4.65;;;0.50;99.90;;;;;;5074612;28;20064;-82
2023/04/27 03:53:51;;;;;;;6.13;4.10;;;-0.10;99.90;;;;;;5073153;28;20139;-81
2023/04/27 03:56:17;;;;;;;7.47;4.55;;;-0.10;99.90;;;;;;5074143;28;20119;-81
2023/04/27 03:58:43;;;;;;;9.27;4.30;;;2.10;99.90;;;;;;5073878;28;20067;-81
2023/04/27 04:01:09;;;;;;;11.40;4.57;;;-0.10;99.90;;;;;;5073461;28;20048;-81
2023/04/27 04:03:35;;;;;;;8.45;4.93;;;-0.10;99.90;;;;;;5056237;28;20139;-81
2023/04/27 04:06:02;;;;;;;6.13;4.03;;;0.00;99.90;;;;;;5072966;28;20139;-81
2023/04/27 04:08:29;;;;;;;10.43;4.65;;;-0.10;99.90;;;;;;5073766;28;20040;-81
2023/04/27 04:10:58;;;;;;;8.23;4.40;;;-0.10;99.90;;;;;;5056110;28;20081;-81
2023/04/27 04:13:24;;;;;;;11.70;4.57;;;0.00;99.90;;;;;;5072579;28;20040;-81
2023/04/27 04:15:50;;;;;;;9.93;4.63;;;0.00;99.90;;;;;;5073795;28;20045;-81
2023/04/27 04:18:15;;;;;;;7.53;4.53;;;-0.10;99.90;;;;;;5072668;28;20404;-81
2023/04/27 04:20:41;;;;;;;9.82;4.78;;;-0.10;99.90;;;;;;5072571;28;20059;-81
2023/04/27 04:23:06;;;;;;;9.07;4.57;;;-0.10;99.90;;;;;;5050993;28;20045;-81
2023/04/27 04:25:32;;;;;;;8.15;4.47;;;0.00;99.90;;;;;;5052955;28;20045;-81
2023/04/27 04:27:58;;;;;;;8.98;4.47;;;-0.10;99.90;;;;;;5052315;28;20090;-81
2023/04/27 04:30:23;;;;;;;10.18;4.43;;;-0.10;99.90;;;;;;5053204;28;20068;-81
2023/04/27 04:32:49;;;;;;;8.38;4.82;;;-0.10;99.90;;;;;;5052791;28;20036;-81
2023/04/27 04:35:18;;;;;;;10.27;5.13;;;-0.10;99.90;;;;;;5053399;28;20098;-81
2023/04/27 04:37:44;;;;;;;9.63;4.97;;;-0.40;99.90;;;;;;5053241;28;20094;-81
2023/04/27 04:40:10;;;;;;;10.57;5.25;;;-0.20;99.90;;;;;;5054653;28;20049;-81
2023/04/27 04:42:39;;;;;;;10.98;4.75;;;-0.20;99.90;;;;;;5057724;28;20047;-81
2023/04/27 04:45:06;;;;;;;8.80;4.95;;;-0.90;99.90;;;;;;5056191;28;20136;-81
2023/04/27 04:47:32;;;;;;;8.63;4.95;;;-0.20;99.90;;;;;;5056305;28;20041;-81
2023/04/27 04:49:58;;;;;;;10.02;4.78;;;-0.10;99.90;;;;;;5057529;28;20056;-81
2023/04/27 04:52:24;;;;;;;6.68;4.00;;;0.00;99.90;;;;;;5056345;28;20053;-81
2023/04/27 04:54:52;;;;;;;10.25;4.68;;;2.30;99.90;;;;;;5057073;28;20493;-80
2023/04/27 04:57:18;;;;;;;7.97;4.72;;;0.20;99.90;;;;;;5057297;28;20052;-81
2023/04/27 04:59:44;;;;;;;8.23;4.78;;;0.20;99.90;;;;;;5057212;28;20044;-81
2023/04/27 05:02:09;;;;;;;9.00;4.93;;;0.20;99.90;;;;;;5056100;28;20041;-81
2023/04/27 05:04:35;;;;;;;9.18;4.88;;;0.20;99.90;;;;;;5055758;28;20113;-81
2023/04/27 05:07:01;;;;;;;7.93;5.20;;;0.30;99.90;;;;;;5056062;28;20045;-80
2023/04/27 05:09:27;;;;;;;9.23;5.10;;;0.60;99.90;;;;;;5055688;28;20041;-81
2023/04/27 05:11:52;;;;;;;11.30;5.65;;;0.40;99.90;;;;;;5057208;28;20109;-81
2023/04/27 05:14:18;;;;;;;11.38;5.47;;;0.60;99.90;;;;;;5038937;28;20041;-81
2023/04/27 05:16:44;;;;;;;9.10;4.93;;;0.60;99.90;;;;;;5067098;28;20408;-81
2023/04/27 05:19:09;;;;;;;9.57;5.65;;;0.60;99.90;;;;;;5075653;28;20044;-81
2023/04/27 05:21:35;;;;;;;10.93;5.40;;;1.70;99.90;;;;;;5058804;28;20067;-81
2023/04/27 05:24:00;;;;;;;10.60;4.78;;;0.70;99.90;;;;;;5076410;28;20175;-81
2023/04/27 05:26:26;;;;;;;10.38;5.20;;;0.70;99.90;;;;;;5076566;28;20063;-81
2023/04/27 05:28:51;;;;;;;11.27;5.15;;;0.80;99.90;;;;;;5076606;28;20076;-81
2023/04/27 05:31:17;;;;;;;9.70;5.07;;;0.80;99.90;;;;;;5059059;28;20046;-81
2023/04/27 05:33:43;;;;;;;9.45;5.10;;;0.90;99.90;;;;;;5076807;28;20041;-81
2023/04/27 05:36:08;;;;;;;11.48;5.72;;;0.90;99.90;;;;;;5076285;28;20480;-82
2023/04/27 05:38:36;;;;;;;12.18;5.53;;;1.00;99.90;;;;;;5076567;28;20136;-83
2023/04/27 05:41:01;;;;;;;11.13;5.93;;;1.20;99.90;;;;;;5076831;28;20048;-87
2023/04/27 05:43:27;;;;;;;14.35;6.40;;;1.20;99.90;;;;;;5076751;28;20049;-83
2023/04/27 05:45:53;;;;;;;12.40;6.53;;;1.30;99.90;;;;;;5058919;28;20048;-83
2023/04/27 05:48:19;;;;;;;13.77;7.57;;;1.40;99.90;;;;;;5058615;28;20545;-84
2023/04/27 05:50:44;;;;;;;13.93;7.45;;;1.50;99.90;;;;;;5081472;28;20116;-88
2023/04/27 05:53:10;;;;;;;14.82;7.88;;;1.60;99.90;;;;;;5060824;28;20090;-84
2023/04/27 05:55:39;;;;;;;12.45;7.47;;;1.80;99.90;;;;;;5076993;28;20039;-80
2023/04/27 05:58:05;;;;;;;13.73;7.38;;;1.90;99.90;;;;;;5078164;28;20087;-85
2023/04/27 06:00:31;;;;;;;14.77;7.60;;;2.10;99.90;;;;;;5075074;28;20098;-85
2023/04/27 06:02:57;;;;;;;11.90;7.22;;;2.40;99.90;;;;;;5076117;28;20036;-82
2023/04/27 06:05:22;;;;;;;14.02;7.05;;;2.30;99.90;;;;;;5076039;28;20098;-82
2023/04/27 06:07:48;;;;;;;11.43;6.38;;;2.50;99.90;;;;;;5076242;28;20488;-81
2023/04/27 06:10:14;;;;;;;12.93;7.25;;;2.60;99.90;;;;;;5074852;28;20139;-81
2023/04/27 06:12:39;;;;;;;12.70;7.38;;;2.80;99.90;;;;;;5074949;28;20050;-81
2023/04/27 06:15:08;;;;;;;13.32;7.15;;;3.00;99.90;;;;;;5075910;28;20500;-77
2023/04/27 06:17:37;;;;;;;11.30;6.25;;;3.20;99.90;;;;;;5075712;28;20408;-80
2023/04/27 06:20:08;;;;;;;14.38;6.35;;;3.40;99.90;;;;;;5075756;28;20047;-80
2023/04/27 06:22:37;;;;;;;12.40;5.88;;;3.60;99.90;;;;;;5074207;28;20051;-80
2023/04/27 06:25:03;;;;;;;10.15;5.68;;;3.80;99.90;;;;;;5075500;28;20488;-78
2023/04/27 06:27:29;;;;;;;9.15;5.57;;;4.00;99.90;;;;;;5075684;28;20050;-78
2023/04/27 06:29:54;;;;;;;13.45;5.88;;;4.30;99.90;;;;;;5075291;28;20407;-78
2023/04/27 06:32:20;;;;;;;12.73;5.53;;;4.50;99.90;;;;;;5075435;28;20040;-79
2023/04/27 06:34:46;;;;;;;10.52;6.03;;;4.70;99.90;;;;;;5075577;28;20070;-78
2023/04/27 06:37:13;;;;;;;8.07;4.85;;;4.90;99.90;;;;;;5074985;28;20044;-81
2023/04/27 06:39:39;;;;;;;12.38;5.38;;;5.20;99.90;;;;;;5075130;28;20409;-81
2023/04/27 06:42:05;;;;;;;13.70;5.00;;;5.60;99.90;;;;;;5057729;28;20048;-85
2023/04/27 06:44:31;;;;;;;14.20;4.75;;;5.50;99.90;;;;;;5074127;28;20048;-80
2023/04/27 06:46:56;;;;;;;11.02;5.07;;;5.80;99.90;;;;;;5074477;28;20044;-79
2023/04/27 06:49:22;;;;;;;11.20;4.90;;;6.00;99.90;;;;;;5074905;28;20045;-81
2023/04/27 06:54:32;;;;;;;21.63;12.90;;;6.70;99.90;;;;;;5132007;27;20324;-75
2023/04/27 06:56:58;;;;;;;18.13;11.85;;;6.90;99.90;;;;;;5132038;28;20402;-75
2023/04/27 06:59:24;;;;;;;20.73;10.73;;;7.00;99.90;;;;;;5130964;28;20048;-75
2023/04/27 07:01:50;;;;;;;17.27;7.97;;;7.10;99.90;;;;;;5131970;27;20074;-76
2023/04/27 07:04:16;;;;;;;6.87;4.93;;;7.10;99.90;;;;;;5131827;27;20122;-74
2023/04/27 07:06:41;;;;;;;5.78;3.80;;;7.70;99.90;;;;;;5131464;27;20372;-76
2023/04/27 07:09:07;;;;;;;4.35;2.75;;;7.20;99.90;;;;;;5131493;28;20051;-76
2023/04/27 07:11:32;;;;;;;5.32;2.92;;;7.20;99.90;;;;;;5131732;28;20039;-76
2023/04/27 07:13:58;;;;;;;4.15;2.47;;;7.40;99.90;;;;;;5131248;28;20046;-76
2023/04/27 07:16:23;;;;;;;4.35;2.85;;;7.40;99.90;;;;;;5131577;28;20053;-75
2023/04/27 07:18:49;;;;;;;5.47;2.72;;;7.50;99.90;;;;;;5131623;28;20487;-74
2023/04/27 07:21:14;;;;;;;5.22;2.95;;;7.50;99.90;;;;;;5131558;28;20058;-74
2023/04/27 07:23:40;;;;;;;5.07;2.65;;;7.70;99.90;;;;;;5131321;27;20047;-74
2023/04/27 07:26:06;;;;;;;3.70;2.63;;;7.70;99.90;;;;;;5131268;27;20043;-78
2023/04/27 07:28:34;;;;;;;4.25;2.33;;;7.80;99.90;;;;;;5131428;27;20184;-75
2023/04/27 07:31:00;;;;;;;3.53;2.55;;;8.00;99.90;;;;;;5131052;27;20497;-75
2023/04/27 07:33:26;;;;;;;4.13;2.00;;;8.10;99.90;;;;;;5130991;27;20487;-75
2023/04/27 07:35:53;;;;;;;4.22;2.00;;;8.10;99.90;;;;;;5130856;27;20044;-78
2023/04/27 07:38:19;;;;;;;3.60;2.58;;;8.60;99.90;;;;;;5131056;27;20069;-76
2023/04/27 07:40:45;;;;;;;5.83;3.07;;;8.30;99.90;;;;;;5130949;27;20108;-74
2023/04/27 07:43:11;;;;;;;5.18;2.58;;;8.40;99.90;;;;;;5130948;27;20773;-76
2023/04/27 07:45:38;;;;;;;4.03;2.20;;;8.60;99.90;;;;;;5131074;27;20118;-76
2023/04/27 07:48:04;;;;;;;3.92;2.00;;;8.50;99.90;;;;;;5130950;27;20043;-75
2023/04/27 07:50:30;;;;;;;5.33;1.80;;;8.60;99.90;;;;;;5130817;28;20665;-77
2023/04/27 07:52:56;;;;;;;3.65;2.05;;;8.70;99.90;;;;;;5130067;28;20059;-75
2023/04/27 07:55:22;;;;;;;6.38;2.13;;;8.80;99.90;;;;;;5130915;27;20094;-75
2023/04/27 07:57:50;;;;;;;3.60;2.25;;;8.80;99.90;;;;;;5130621;27;20079;-75
2023/04/27 08:00:16;;;;;;;3.45;2.05;;;8.90;99.90;;;;;;5130721;27;20472;-75
2023/04/27 08:02:42;;;;;;;3.03;2.22;;;9.00;99.90;;;;;;5130705;27;20126;-76
2023/04/27 08:05:08;;;;;;;4.47;2.33;;;9.00;99.90;;;;;;5121285;28;20122;-76
2023/04/27 08:07:34;;;;;;;4.28;2.00;;;9.00;99.90;;;;;;5116723;28;20399;-76
2023/04/27 08:10:00;;;;;;;5.72;2.10;;;9.10;99.90;;;;;;5116759;28;20089;-75
2023/04/27 08:12:25;;;;;;;2.53;1.88;;;9.20;99.90;;;;;;5116761;28;20051;-75
2023/04/27 08:14:51;;;;;;;2.47;1.90;;;9.20;99.90;;;;;;5116818;28;20043;-75
2023/04/27 08:17:17;;;;;;;6.10;2.00;;;9.30;99.90;;;;;;5116503;28;20084;-76
2023/04/27 08:19:43;;;;;;;4.55;2.10;;;9.40;99.90;;;;;;5116622;28;20051;-75
2023/04/27 08:22:09;;;;;;;3.38;2.10;;;9.40;99.90;;;;;;5116236;28;20055;-75
2023/04/27 08:24:35;;;;;;;4.90;2.00;;;9.70;99.90;;;;;;5116504;28;20058;-76
2023/04/27 08:27:02;;;;;;;4.72;2.22;;;9.70;99.90;;;;;;5116317;28;20043;-76
2023/04/27 08:29:27;;;;;;;;;;;9.80;99.90;;;;;;5116968;28;20051;-75
2023/04/27 08:31:53;;;;;;;5.28;2.35;;;9.80;99.90;;;;;;5116492;28;19927;-76
2023/04/27 08:34:19;;;;;;;4.72;2.08;;;9.90;99.90;;;;;;5116246;28;20054;-75
2023/04/27 08:36:44;;;;;;;3.38;1.80;;;10.10;99.90;;;;;;5116161;28;20043;-75
2023/04/27 08:39:10;;;;;;;2.95;2.00;;;9.90;99.90;;;;;;5116290;27;20047;-75
2023/04/27 08:41:42;;;;;;;2.22;1.73;;;10.00;99.90;;;;;;5116485;28;20093;-76
2023/04/27 08:44:07;;;;;;;3.08;1.73;;;10.10;99.90;;;;;;5116365;27;20036;-75
2023/04/27 08:46:33;;;;;;;3.10;1.98;;;10.50;99.90;;;;;;5116156;28;20051;-72
2023/04/27 08:48:59;;;;;;;2.92;1.77;;;10.20;99.90;;;;;;5115631;28;20054;-75
2023/04/27 08:51:26;;;;;;;3.35;2.00;;;10.40;99.90;;;;;;5114560;28;20051;-74
2023/04/27 08:53:57;;;;;;;2.00;1.48;;;10.40;99.90;;;;;;5115471;28;20052;-75
2023/04/27 08:56:24;;;;;;;2.10;1.40;;;10.40;99.90;;;;;;5115845;28;20131;-76
2023/04/27 08:58:51;;;;;;;6.65;1.60;;;10.40;99.90;;;;;;5115111;28;20050;-78
2023/04/27 09:01:17;;;;;;;4.50;1.50;;;10.50;99.90;;;;;;5114800;28;20066;-76
2023/04/27 09:03:45;;;;;;;3.97;1.70;;;10.60;99.90;;;;;;5115814;28;20096;-76
2023/04/27 09:06:14;;;;;;;3.55;1.77;;;10.60;99.90;;;;;;5115601;28;20039;-76
2023/04/27 09:08:48;;;;;;;3.88;1.70;;;10.70;99.90;;;;;;5115639;28;20100;-75
2023/04/27 09:11:15;;;;;;;2.75;1.70;;;10.70;99.90;;;;;;5115682;27;20399;-75
2023/04/27 09:13:43;;;;;;;;;;;10.80;99.90;;;;;;5115637;28;20075;-76
2023/04/27 09:16:12;;;;;;;3.33;1.70;;;10.90;99.90;;;;;;5114324;28;19920;-78
2023/04/27 09:18:41;;;;;;;3.20;1.75;;;11.00;99.90;;;;;;5115398;28;20116;-77
2023/04/27 09:21:06;;;;;;;2.60;1.67;;;11.00;99.90;;;;;;5115390;28;20051;-76
2023/04/27 09:23:34;;;;;;;4.03;1.80;;;11.10;99.90;;;;;;5114956;28;20104;-77
2023/04/27 09:26:07;;;;;;;3.10;1.73;;;11.10;99.90;;;;;;5115100;28;20571;-77
2023/04/27 09:28:33;;;;;;;4.53;2.20;;;11.10;99.90;;;;;;5115245;28;20122;-75
2023/04/27 09:31:01;;;;;;;3.90;2.35;;;11.20;99.90;;;;;;5115106;28;20047;-75
2023/04/27 09:33:28;;;;;;;3.35;2.00;;;11.50;99.90;;;;;;5114906;28;20109;-76
2023/04/27 09:35:56;;;;;;;2.60;2.33;;;11.20;99.90;;;;;;5113985;28;20381;-76
2023/04/27 09:38:22;;;;;;;4.90;2.00;;;11.30;99.90;;;;;;5114902;28;20514;-76
2023/04/27 09:40:49;;;;;;;3.65;2.33;;;11.40;99.90;;;;;;5115254;28;20039;-76
2023/04/27 09:43:15;;;;;;;;;;;11.60;99.90;;;;;;5115411;28;20406;-76
2023/04/27 09:45:42;;;;;;;6.03;2.40;;;11.60;99.90;;;;;;5114975;28;19920;-76
2023/04/27 09:48:08;;;;;;;5.68;2.47;;;11.70;99.90;;;;;;5114607;28;20047;-76
2023/04/27 09:50:35;;;;;;;4.88;2.55;;;11.60;99.90;;;;;;5114401;28;20039;-77
2023/04/27 09:53:04;;;;;;;2.63;1.90;;;11.60;99.90;;;;;;5114090;28;20468;-77
2023/04/27 09:55:44;;;;;;;4.10;2.20;;;11.70;99.90;;;;;;5114359;28;20487;-77
2023/04/27 09:58:15;;;;;;;4.93;2.40;;;11.80;99.90;;;;;;5114794;28;20158;-77
2023/04/27 10:01:05;;;;;;;2.75;2.22;;;11.80;99.90;;;;;;5114639;28;20039;-77
2023/04/27 10:03:56;;;;;;;2.75;1.98;;;11.90;99.90;;;;;;5114860;28;20043;-77
2023/04/27 10:06:57;;;;;;;4.28;2.40;;;11.80;99.90;;;;;;5114489;28;20471;-78
2023/04/27 10:09:23;;;;;;;3.72;2.42;;;11.80;99.90;;;;;;5113450;28;20130;-77
2023/04/27 10:11:51;;;;;;;2.90;2.00;;;11.90;99.90;;;;;;5114534;28;20043;-77
2023/04/27 10:14:19;;;;;;;4.75;1.92;;;12.00;99.90;;;;;;5114429;28;20039;-77
2023/04/27 10:16:53;;;;;;;3.33;2.60;;;12.10;99.90;;;;;;5113869;28;20043;-77
2023/04/27 10:19:20;;;;;;;4.57;2.10;;;12.10;99.90;;;;;;5114366;28;20055;-77
2023/04/27 10:22:07;;;;;;;4.20;2.20;;;12.10;99.90;;;;;;5114325;28;20043;-77
2023/04/27 10:24:47;;;;;;;3.80;2.33;;;12.00;99.90;;;;;;5114497;28;20122;-77
2023/04/27 10:27:17;;;;;;;4.03;2.30;;;12.00;99.90;;;;;;5113933;28;20556;-77
2023/04/27 10:29:45;;;;;;;4.57;2.30;;;12.00;99.90;;;;;;5114508;28;20043;-77
2023/04/27 10:32:25;;;;;;;2.75;1.98;;;12.10;99.90;;;;;;5113280;28;20108;-77
2023/04/27 10:35:02;;;;;;;3.95;2.35;;;12.10;99.90;;;;;;5114209;28;20135;-77
2023/04/27 10:37:40;;;;;;;4.32;2.40;;;12.20;99.90;;;;;;5112990;28;20048;-77
2023/04/27 10:40:09;;;;;;;3.45;2.00;;;12.20;99.90;;;;;;5114245;28;20403;-78
2023/04/27 10:42:35;;;;;;;5.47;2.50;;;12.20;99.90;;;;;;5114025;28;20079;-77
2023/04/27 10:45:01;;;;;;;4.05;2.53;;;12.60;99.70;;;;;;5113919;28;20122;-77
2023/04/27 10:47:44;;;;;;;3.33;2.38;;;12.10;99.90;;;;;;5114012;28;20451;-77
2023/04/27 10:50:15;;;;;;;6.35;2.58;;;12.30;99.80;;;;;;5113474;28;20040;-77
2023/04/27 10:52:42;;;;;;;5.95;2.30;;;12.30;99.90;;;;;;5112584;28;20064;-77
2023/04/27 10:55:19;;;;;;;3.47;2.35;;;12.30;99.90;;;;;;5114209;28;20073;-77
2023/04/27 10:57:53;;;;;;;3.63;2.40;;;12.50;99.90;;;;;;5113743;28;20495;-77
2023/04/27 11:00:43;;;;;;;4.00;2.30;;;12.60;99.90;;;;;;5113744;28;20044;-77
2023/04/27 11:03:11;;;;;;;4.90;2.50;;;12.60;99.80;;;;;;5105966;28;20059;-77
2023/04/27 11:05:37;;;;;;;6.15;2.17;;;12.60;99.20;;;;;;5113893;28;20043;-77
2023/04/27 11:08:14;;;;;;;5.05;2.28;;;12.70;99.90;;;;;;5113891;28;20122;-77
2023/04/27 11:10:48;;;;;;;5.55;2.40;;;12.80;99.90;;;;;;5113781;28;20051;-77
2023/04/27 11:13:17;;;;;;;3.45;2.20;;;12.90;99.40;;;;;;5113618;28;20050;-77
2023/04/27 11:15:54;;;;;;;4.25;2.00;;;13.00;99.10;;;;;;5113572;28;20043;-77
2023/04/27 11:18:24;;;;;;;3.88;2.75;;;13.10;99.90;;;;;;5113852;28;20036;-78
2023/04/27 11:20:53;;;;;;;4.75;2.45;;;13.30;99.90;;;;;;5113844;28;20067;-77
2023/04/27 11:23:26;;;;;;;3.72;2.33;;;13.40;99.90;;;;;;5113711;28;20039;-78
2023/04/27 11:25:53;;;;;;;4.63;2.60;;;13.50;99.90;;;;;;5113318;28;20177;-77
2023/04/27 11:28:19;;;;;;;3.67;2.30;;;13.70;99.90;;;;;;5113630;28;20400;-77
2023/04/27 11:30:45;;;;;;;3.00;2.30;;;13.70;99.90;;;;;;5112081;28;20617;-77
2023/04/27 11:33:10;;;;;;;6.07;2.58;;;13.80;99.90;;;;;;5113404;28;20118;-77
2023/04/27 11:35:36;;;;;;;4.70;2.75;;;13.90;99.90;;;;;;5113376;28;20101;-77
2023/04/27 11:38:02;;;;;;;4.22;2.20;;;14.00;98.60;;;;;;5113402;28;20131;-78
2023/04/27 11:40:28;;;;;;;4.03;2.38;;;13.90;99.90;;;;;;5115658;28;20039;-77
2023/04/27 11:43:03;;;;;;;3.73;1.93;;;13.90;99.90;;;;;;5117595;28;20088;-78
2023/04/27 11:45:29;;;;;;;4.10;2.40;;;13.90;98.30;;;;;;5117127;28;20544;-78
2023/04/27 11:47:57;;;;;;;3.75;2.45;;;13.90;99.20;;;;;;5117254;28;20047;-78
2023/04/27 11:50:26;;;;;;;3.92;2.08;;;13.90;97.10;;;;;;5117058;28;20110;-77
2023/04/27 11:52:52;;;;;;;3.10;2.10;;;13.90;97.60;;;;;;5116575;28;20047;-77
2023/04/27 11:55:21;;;;;;;3.60;2.20;;;13.90;97.10;;;;;;5117136;28;20051;-78
2023/04/27 11:57:47;;;;;;;5.70;2.42;;;14.00;98.90;;;;;;5116828;28;20497;-77
2023/04/27 12:00:13;;;;;;;4.20;2.00;;;14.00;98.20;;;;;;5116827;28;20126;-78
2023/04/27 12:02:41;;;;;;;4.15;2.25;;;14.10;98.10;;;;;;5117112;28;20047;-78
2023/04/27 12:05:08;;;;;;;2.92;2.15;;;14.00;96.00;;;;;;5116907;28;20161;-77
2023/04/27 12:07:34;;;;;;;5.00;2.30;;;14.10;96.30;;;;;;5116788;28;20048;-78
2023/04/27 12:10:00;;;;;;;4.60;2.25;;;14.00;95.70;;;;;;5116818;28;20051;-77
2023/04/27 12:12:26;;;;;;;3.10;2.15;;;14.10;97.20;;;;;;5116656;28;20156;-77
2023/04/27 12:14:52;;;;;;;2.67;2.20;;;14.40;97.10;;;;;;5116647;28;20538;-78
2023/04/27 12:17:18;;;;;;;4.32;2.30;;;14.10;97.10;;;;;;5116717;28;20039;-78
2023/04/27 12:19:43;;;;;;;4.30;2.40;;;14.00;95.70;;;;;;5116470;28;20035;-77
2023/04/27 12:22:09;;;;;;;2.97;2.25;;;13.90;95.00;;;;;;5116584;28;20066;-78
2023/04/27 12:24:35;;;;;;;3.10;2.07;;;14.20;95.70;;;;;;5116607;27;20048;-78
2023/04/27 12:27:02;;;;;;;3.50;2.38;;;13.80;98.10;;;;;;5116591;28;20139;-77
2023/04/27 12:29:28;;;;;;;4.53;2.10;;;14.10;96.80;;;;;;5114574;28;20072;-78
2023/04/27 12:31:54;;;;;;;4.33;2.23;;;14.00;96.50;;;;;;5115860;28;20075;-78
2023/04/27 12:34:20;;;;;;;3.83;2.25;;;14.00;96.20;;;;;;5116266;28;20480;-78
2023/04/27 12:36:46;;;;;;;3.92;1.85;;;14.00;96.80;;;;;;5116198;28;20115;-78
2023/04/27 12:39:19;;;;;;;6.88;2.20;;;14.00;96.90;;;;;;5116248;28;20077;-79
2023/04/27 12:41:46;;;;;;;2.50;1.77;;;14.00;95.00;;;;;;5114837;28;20104;-79
2023/04/27 12:44:13;;;;;;;2.95;2.17;;;13.90;96.80;;;;;;5116063;28;20096;-78
2023/04/27 12:46:40;;;;;;;2.67;1.95;;;14.00;96.20;;;;;;5115902;28;20043;-78
2023/04/27 12:49:06;;;;;;;3.15;1.77;;;14.00;97.00;;;;;;5115913;28;20051;-78
2023/04/27 12:51:33;;;;;;;2.92;2.13;;;13.90;97.50;;;;;;5115804;28;20051;-79
2023/04/27 12:53:59;;;;;;;3.45;1.85;;;13.90;96.00;;;;;;5115550;28;20117;-79